KMIB/MIB METAR and TAF weather

Enter ICAO airport designator
Station Type Date Time Source
KMIB METAR 2019/10/18 10:56 UTC NOAA

KMIB 181056Z AUTO 00000KT 1 7/8SM BR CLR 01/01 A2936 RMK AO2 VIS 1V1 7/8 SLP955 T00130007 $


Station Type Date Time Source
KMIB Decoded METAR 2019/10/18 10:56 UTC NOAA

Minot Air Force Base, ND, United States (KMIB) 48-25N 101-21W
Oct 18, 2019 - 06:56 AM EDT / 2019.10.18 1056 UTC
Wind: Calm:0
Visibility: 1 7/8 mile(s):0
Sky conditions: clear
Weather: mist
Temperature: 34.3 F (1.3 C)
Dew Point: 33.3 F (0.7 C)
Relative Humidity: 95%
Pressure (altimeter): 29.36 in. Hg (994 hPa)
ob: KMIB 181056Z AUTO 00000KT 1 7/8SM BR CLR 01/01 A2936 RMK AO2 VIS 1V1 7/8 SLP955 T00130007
cycle: 11

Station Type Date Time Source
KMIB TAF 2019/10/18 10:42 UTC NOAA

TAF TAF
AMD KMIB 181036Z 1810/1915 VRB06KT 1600 BR SCT100 BKN200 QNH2936INS
TEMPO 1810/1813 0400 FG
BECMG 1813/1814 30012G18KT 9999 NSW SCT060 BKN100 QNH2952INS
BECMG 1901/1902 26009KT 9999 SCT080 QNH2956INS TX12/1822Z TN00/1811Z

Example: see airport list